createdAt,value
2023-05-25T11:42:14.651Z,45.7
2023-05-25T11:48:08.659Z,45.5
2023-05-25T11:54:00.269Z,45.4
2023-05-25T12:00:51.234Z,45.3
2023-05-25T12:06:45.114Z,44.9
2023-05-25T12:12:35.690Z,44.8
2023-05-25T12:18:12.726Z,45.2
2023-05-25T12:24:05.737Z,45.4
2023-05-25T12:30:08.178Z,45.7
2023-05-25T12:36:00.575Z,46.1
2023-05-25T12:41:55.227Z,46.6
2023-05-25T12:47:47.305Z,47.1
2023-05-25T12:53:40.200Z,47.6
2023-05-25T12:59:32.379Z,47.9
2023-05-25T13:05:24.167Z,48.4
2023-05-25T13:16:53.751Z,49.1
2023-05-25T13:22:48.280Z,49.4
2023-05-25T13:28:40.022Z,49.7
2023-05-25T13:34:32.519Z,49.9
2023-05-25T13:40:08.612Z,50.1
2023-05-25T13:46:02.154Z,50.3
2023-05-25T13:52:10.357Z,50.4
2023-05-25T13:57:45.656Z,50.5
2023-05-25T14:03:38.116Z,50.5
2023-05-25T14:09:30.190Z,50.6
2023-05-25T14:15:36.687Z,50.6
2023-05-25T14:21:13.814Z,50.5
2023-05-25T14:27:14.840Z,50.3
2023-05-25T14:32:52.557Z,50.2
2023-05-25T14:38:30.367Z,50.2
2023-05-25T14:44:22.885Z,50.1
2023-05-25T14:50:30.330Z,49.9
2023-05-25T14:56:07.963Z,49.8
2023-05-25T15:01:45.131Z,49.6
2023-05-25T15:07:21.692Z,49.5
2023-05-25T15:13:13.424Z,49.4
2023-05-25T15:19:05.325Z,49.3
2023-05-25T15:24:56.373Z,49.2
2023-05-25T15:30:54.743Z,49.1
2023-05-25T15:37:05.418Z,48.9
2023-05-25T15:42:40.676Z,48.9
2023-05-25T15:48:33.427Z,48.8
2023-05-25T15:54:27.303Z,48.7
2023-05-25T16:00:18.003Z,48.6
2023-05-25T16:06:11.189Z,48.6
2023-05-25T16:12:04.361Z,48.5
2023-05-25T16:17:58.353Z,48.4
2023-05-25T16:23:39.627Z,48.4
2023-05-25T16:29:31.869Z,48.3
2023-05-25T16:35:23.398Z,48.3
2023-05-25T16:41:15.421Z,48.2
2023-05-25T16:46:54.892Z,48.1
2023-05-25T16:52:46.219Z,48.1
2023-05-25T16:58:39.851Z,48
2023-05-25T17:04:33.079Z,47.9
2023-05-25T17:10:24.269Z,47.9
2023-05-25T17:16:15.784Z,47.9
2023-05-25T17:21:52.788Z,47.8
2023-05-25T17:27:43.608Z,47.8
2023-05-25T17:33:07.789Z,47.7
2023-05-25T17:39:00.560Z,47.6
2023-05-25T17:44:35.680Z,47.6
2023-05-25T17:50:27.930Z,47.6
2023-05-25T17:56:04.424Z,47.5
2023-05-25T18:01:56.797Z,47.5
2023-05-25T18:07:51.110Z,47.4
2023-05-25T18:19:02.890Z,47.3
2023-05-25T18:24:54.537Z,47.3
2023-05-25T18:30:30.826Z,47.3
2023-05-25T18:41:58.415Z,47.1
2023-05-25T18:47:50.307Z,47.1
2023-05-25T18:59:01.503Z,47
2023-05-25T19:10:28.704Z,46.8
2023-05-25T19:16:20.784Z,46.6
2023-05-25T19:22:13.270Z,46.5
2023-05-25T19:28:08.753Z,46.4
2023-05-25T19:33:45.717Z,46.3
2023-05-25T19:39:48.716Z,46.3
2023-05-25T19:45:39.579Z,46.1
2023-05-25T19:51:32.383Z,46.1
2023-05-25T19:57:25.500Z,46
2023-05-25T20:03:11.724Z,45.9
2023-05-25T20:08:48.829Z,45.9
2023-05-25T20:14:40.215Z,45.8
2023-05-25T20:20:31.835Z,45.8
2023-05-25T20:26:23.203Z,45.7
2023-05-25T20:31:59.761Z,45.6
2023-05-25T20:37:52.827Z,45.6
2023-05-25T20:43:43.739Z,45.6
2023-05-25T20:49:20.142Z,45.5
2023-05-25T20:54:24.432Z,45.4
2023-05-25T21:00:16.251Z,45.4
2023-05-25T21:05:53.857Z,45.4
2023-05-25T21:11:43.919Z,45.4
2023-05-25T21:17:04.991Z,45.3
2023-05-25T21:22:56.955Z,45.3
2023-05-25T21:33:53.118Z,45.2
2023-05-25T21:39:29.124Z,45.2
2023-05-25T21:44:50.027Z,45.1
2023-05-25T21:50:26.496Z,45.1
2023-05-25T21:56:03.155Z,45.1
2023-05-25T22:01:41.005Z,45
2023-05-25T22:07:17.855Z,45
2023-05-25T22:12:54.677Z,44.9
2023-05-25T22:18:29.468Z,44.9
2023-05-25T22:24:20.801Z,44.9
2023-05-25T22:29:57.442Z,44.9
2023-05-25T22:35:33.998Z,44.8
2023-05-25T22:40:54.070Z,44.8
2023-05-25T22:46:30.601Z,44.8
2023-05-25T22:51:50.742Z,44.8
2023-05-25T22:57:26.839Z,44.7
2023-05-25T23:02:48.763Z,44.6
2023-05-25T23:08:09.732Z,44.6
2023-05-25T23:14:01.569Z,44.6
2023-05-25T23:19:22.800Z,44.6
2023-05-25T23:24:43.663Z,44.5
2023-05-25T23:30:20.021Z,44.5
2023-05-25T23:35:41.283Z,44.4
2023-05-25T23:41:20.483Z,44.4
2023-05-25T23:47:12.350Z,44.4
2023-05-25T23:52:49.262Z,44.4
2023-05-25T23:58:40.579Z,44.3
